Terminal Aerodrome Forecast
Issued by NWS Sterling, VA

Current Version | Previous Version | Graphics & Text | Print | Product List | Glossary On
Versions: 1 2 3 4 5 6 7 8 9 10 11 12 13 14 15 16 17
000
FTUS41 KLWX 220500
TAFMRB
TAF
KMRB 220540Z 2206/2306 22003KT P6SM SKC
     FM220900 VRB03KT 5SM BR SCT015 BKN035
     FM221100 00000KT 3SM BR SCT007 BKN015
     FM221300 00000KT P6SM SCT009 BKN025
     FM221500 00000KT P6SM SCT030 BKN045
     FM221700 00000KT P6SM VCTS SCT030CB BKN050
     FM222300 00000KT P6SM SCT030 BKN060=

USA.gov is the U.S. government's official web portal to all federal, state and local government web resources and services.